sensor_id;sensor_type;location;lat;lon;timestamp;pressure;altitude;pressure_sealevel;temperature;humidity
43161;BME280;40968;52.342;5.528;2022-11-11T00:01:54;102769.22;;;10.38;78.52
43161;BME280;40968;52.342;5.528;2022-11-11T00:04:21;102771.97;;;10.35;78.45
43161;BME280;40968;52.342;5.528;2022-11-11T00:06:49;102771.19;;;10.33;78.59
43161;BME280;40968;52.342;5.528;2022-11-11T00:09:17;102724.22;;;10.02;78.48
43161;BME280;40968;52.342;5.528;2022-11-11T00:11:44;102706.78;;;9.91;78.73
43161;BME280;40968;52.342;5.528;2022-11-11T00:14:11;102728.50;;;10.06;78.80
43161;BME280;40968;52.342;5.528;2022-11-11T00:16:37;102765.31;;;10.23;79.03
43161;BME280;40968;52.342;5.528;2022-11-11T00:19:22;102766.28;;;10.22;78.98
43161;BME280;40968;52.342;5.528;2022-11-11T00:22:14;102685.22;;;9.74;79.02
43161;BME280;40968;52.342;5.528;2022-11-11T00:25:02;102765.63;;;10.15;79.15
43161;BME280;40968;52.342;5.528;2022-11-11T00:27:33;102728.13;;;9.94;79.03
43161;BME280;40968;52.342;5.528;2022-11-11T00:29:59;102689.88;;;9.69;79.41
43161;BME280;40968;52.342;5.528;2022-11-11T00:32:26;102757.88;;;10.09;79.31
43161;BME280;40968;52.342;5.528;2022-11-11T00:34:56;102671.75;;;9.53;79.44
43161;BME280;40968;52.342;5.528;2022-11-11T00:37:43;102609.47;;;9.05;79.63
43161;BME280;40968;52.342;5.528;2022-11-11T00:40:11;102725.13;;;9.80;79.77
43161;BME280;40968;52.342;5.528;2022-11-11T00:42:38;102700.53;;;9.70;79.86
43161;BME280;40968;52.342;5.528;2022-11-11T00:45:05;102727.53;;;9.86;79.70
43161;BME280;40968;52.342;5.528;2022-11-11T00:47:32;102750.16;;;10.01;79.88
43161;BME280;40968;52.342;5.528;2022-11-11T00:50:18;102734.53;;;9.90;79.95
43161;BME280;40968;52.342;5.528;2022-11-11T00:53:08;102589.94;;;9.03;80.10
43161;BME280;40968;52.342;5.528;2022-11-11T00:55:35;102740.44;;;9.99;80.27
43161;BME280;40968;52.342;5.528;2022-11-11T00:58:02;102745.81;;;9.99;80.01
43161;BME280;40968;52.342;5.528;2022-11-11T01:00:29;102719.50;;;9.86;80.31
43161;BME280;40968;52.342;5.528;2022-11-11T01:02:56;102750.41;;;9.95;80.28
43161;BME280;40968;52.342;5.528;2022-11-11T01:05:23;102750.34;;;9.96;80.16
43161;BME280;40968;52.342;5.528;2022-11-11T01:07:50;102744.97;;;9.96;80.23
43161;BME280;40968;52.342;5.528;2022-11-11T01:10:18;102720.16;;;9.71;80.43
43161;BME280;40968;52.342;5.528;2022-11-11T01:12:59;102752.16;;;9.96;80.32
43161;BME280;40968;52.342;5.528;2022-11-11T01:15:38;102752.16;;;9.96;80.31
43161;BME280;40968;52.342;5.528;2022-11-11T01:18:05;102762.94;;;9.94;80.19
43161;BME280;40968;52.342;5.528;2022-11-11T01:20:32;102791.56;;;9.92;80.39
43161;BME280;40968;52.342;5.528;2022-11-11T01:23:01;102765.78;;;9.90;80.53
43161;BME280;40968;52.342;5.528;2022-11-11T01:25:31;102737.84;;;9.75;80.59
43161;BME280;40968;52.342;5.528;2022-11-11T01:27:58;102751.22;;;9.75;80.73
43161;BME280;40968;52.342;5.528;2022-11-11T01:30:25;102689.50;;;9.34;80.75
43161;BME280;40968;52.342;5.528;2022-11-11T01:32:51;102762.72;;;9.77;80.86
43161;BME280;40968;52.342;5.528;2022-11-11T01:35:18;102799.81;;;9.88;80.92
43161;BME280;40968;52.342;5.528;2022-11-11T01:37:44;102765.72;;;9.69;80.69
43161;BME280;40968;52.342;5.528;2022-11-11T01:40:11;102697.66;;;9.31;80.95
43161;BME280;40968;52.342;5.528;2022-11-11T01:42:50;102799.00;;;9.86;81.11
43161;BME280;40968;52.342;5.528;2022-11-11T01:45:44;102796.19;;;9.89;80.98
43161;BME280;40968;52.342;5.528;2022-11-11T01:48:13;102792.63;;;9.88;80.91
43161;BME280;40968;52.342;5.528;2022-11-11T01:51:01;102726.13;;;9.55;81.17
43161;BME280;40968;52.342;5.528;2022-11-11T01:53:28;102659.63;;;9.22;80.97
43161;BME280;40968;52.342;5.528;2022-11-11T01:55:55;102629.06;;;9.06;80.81
43161;BME280;40968;52.342;5.528;2022-11-11T01:58:25;102776.56;;;9.88;81.20
43161;BME280;40968;52.342;5.528;2022-11-11T02:00:52;102659.97;;;9.37;80.99
43161;BME280;40968;52.342;5.528;2022-11-11T02:03:20;102643.31;;;9.28;81.07
43161;BME280;40968;52.342;5.528;2022-11-11T02:05:48;102678.41;;;9.43;81.25
43161;BME280;40968;52.342;5.528;2022-11-11T02:08:16;102733.97;;;9.82;81.30
43161;BME280;40968;52.342;5.528;2022-11-11T02:10:58;102724.56;;;9.72;81.39
43161;BME280;40968;52.342;5.528;2022-11-11T02:13:27;102634.50;;;9.26;81.35
43161;BME280;40968;52.342;5.528;2022-11-11T02:16:11;102740.06;;;9.86;81.38
43161;BME280;40968;52.342;5.528;2022-11-11T02:18:39;102639.84;;;9.26;81.36
43161;BME280;40968;52.342;5.528;2022-11-11T02:21:07;102704.34;;;9.65;81.35
43161;BME280;40968;52.342;5.528;2022-11-11T02:23:38;102674.75;;;9.45;81.44
43161;BME280;40968;52.342;5.528;2022-11-11T02:26:10;102659.00;;;9.38;81.43
43161;BME280;40968;52.342;5.528;2022-11-11T02:28:40;102741.19;;;9.80;81.61
43161;BME280;40968;52.342;5.528;2022-11-11T02:31:08;102726.06;;;9.79;81.46
43161;BME280;40968;52.342;5.528;2022-11-11T02:33:34;102740.31;;;9.79;81.55
43161;BME280;40968;52.342;5.528;2022-11-11T02:36:01;102620.72;;;9.13;81.40
43161;BME280;40968;52.342;5.528;2022-11-11T02:38:30;102690.63;;;9.50;81.57
43161;BME280;40968;52.342;5.528;2022-11-11T02:40:57;102699.53;;;9.51;81.60
43161;BME280;40968;52.342;5.528;2022-11-11T02:43:42;102750.16;;;9.79;81.42
43161;BME280;40968;52.342;5.528;2022-11-11T02:46:09;102747.47;;;9.79;81.74
43161;BME280;40968;52.342;5.528;2022-11-11T02:48:35;102747.47;;;9.79;81.54
43161;BME280;40968;52.342;5.528;2022-11-11T02:51:02;102689.06;;;9.44;81.56
43161;BME280;40968;52.342;5.528;2022-11-11T02:53:30;102725.75;;;9.65;81.64
43161;BME280;40968;52.342;5.528;2022-11-11T02:55:56;102701.59;;;9.44;81.66
43161;BME280;40968;52.342;5.528;2022-11-11T02:58:23;102775.88;;;9.83;81.53
43161;BME280;40968;52.342;5.528;2022-11-11T03:00:51;102770.53;;;9.83;81.69
43161;BME280;40968;52.342;5.528;2022-11-11T03:03:17;102641.69;;;9.02;81.45
43161;BME280;40968;52.342;5.528;2022-11-11T03:05:44;102776.72;;;9.85;81.47
43161;BME280;40968;52.342;5.528;2022-11-11T03:08:10;102625.13;;;8.92;81.41
43161;BME280;40968;52.342;5.528;2022-11-11T03:10:37;102773.06;;;9.86;81.51
43161;BME280;40968;52.342;5.528;2022-11-11T03:13:03;102780.09;;;9.89;81.46
43161;BME280;40968;52.342;5.528;2022-11-11T03:15:30;102781.16;;;9.85;81.24
43161;BME280;40968;52.342;5.528;2022-11-11T03:17:58;102785.44;;;9.90;81.26
43161;BME280;40968;52.342;5.528;2022-11-11T03:20:24;102784.53;;;9.90;81.27
43161;BME280;40968;52.342;5.528;2022-11-11T03:23:09;102781.78;;;9.91;81.01
43161;BME280;40968;52.342;5.528;2022-11-11T03:25:37;102784.53;;;9.90;81.20
43161;BME280;40968;52.342;5.528;2022-11-11T03:28:05;102788.09;;;9.90;80.89
43161;BME280;40968;52.342;5.528;2022-11-11T03:30:32;102756.66;;;9.73;81.17
43161;BME280;40968;52.342;5.528;2022-11-11T03:33:00;102789.88;;;9.90;81.17
43161;BME280;40968;52.342;5.528;2022-11-11T03:35:27;102748.94;;;9.66;80.99
43161;BME280;40968;52.342;5.528;2022-11-11T03:37:54;102789.88;;;9.90;81.18
43161;BME280;40968;52.342;5.528;2022-11-11T03:40:38;102790.78;;;9.90;81.03
43161;BME280;40968;52.342;5.528;2022-11-11T03:43:05;102725.50;;;9.49;81.07
43161;BME280;40968;52.342;5.528;2022-11-11T03:45:31;102759.38;;;9.72;81.11
43161;BME280;40968;52.342;5.528;2022-11-11T03:47:59;102797.84;;;9.91;81.11
43161;BME280;40968;52.342;5.528;2022-11-11T03:50:26;102801.50;;;9.90;81.04
43161;BME280;40968;52.342;5.528;2022-11-11T03:52:53;102760.50;;;9.66;80.86
43161;BME280;40968;52.342;5.528;2022-11-11T03:55:19;102789.03;;;9.89;81.09
43161;BME280;40968;52.342;5.528;2022-11-11T03:57:46;102662.78;;;9.10;81.14
43161;BME280;40968;52.342;5.528;2022-11-11T04:00:14;102803.34;;;9.88;81.00
43161;BME280;40968;52.342;5.528;2022-11-11T04:02:41;102639.34;;;8.93;80.91
43161;BME280;40968;52.342;5.528;2022-11-11T04:05:27;102806.97;;;9.87;80.88
43161;BME280;40968;52.342;5.528;2022-11-11T04:08:12;102804.34;;;9.86;80.94
43161;BME280;40968;52.342;5.528;2022-11-11T04:11:18;102613.69;;;8.65;80.60
43161;BME280;40968;52.342;5.528;2022-11-11T04:13:47;102804.41;;;9.84;80.84
43161;BME280;40968;52.342;5.528;2022-11-11T04:16:31;102803.59;;;9.82;80.92
43161;BME280;40968;52.342;5.528;2022-11-11T04:18:58;102795.63;;;9.81;81.07
43161;BME280;40968;52.342;5.528;2022-11-11T04:21:49;102707.47;;;9.30;81.16
43161;BME280;40968;52.342;5.528;2022-11-11T04:24:17;102745.78;;;9.54;81.09
43161;BME280;40968;52.342;5.528;2022-11-11T04:27:07;102796.63;;;9.78;81.18
43161;BME280;40968;52.342;5.528;2022-11-11T04:29:34;102740.81;;;9.45;81.30
43161;BME280;40968;52.342;5.528;2022-11-11T04:32:01;102758.75;;;9.65;81.17
43161;BME280;40968;52.342;5.528;2022-11-11T04:34:47;102756.66;;;9.73;81.12
43161;BME280;40968;52.342;5.528;2022-11-11T04:37:16;102768.09;;;9.77;81.15
43161;BME280;40968;52.342;5.528;2022-11-11T04:39:43;102703.81;;;9.33;81.15
43161;BME280;40968;52.342;5.528;2022-11-11T04:42:28;102691.47;;;9.28;81.07
43161;BME280;40968;52.342;5.528;2022-11-11T04:44:56;102760.19;;;9.74;81.13
43161;BME280;40968;52.342;5.528;2022-11-11T04:47:52;102758.38;;;9.74;81.34
43161;BME280;40968;52.342;5.528;2022-11-11T04:50:19;102749.91;;;9.63;81.28
43161;BME280;40968;52.342;5.528;2022-11-11T04:52:47;102666.97;;;9.17;81.28
43161;BME280;40968;52.342;5.528;2022-11-11T04:55:14;102768.09;;;9.77;81.20
43161;BME280;40968;52.342;5.528;2022-11-11T04:57:58;102767.97;;;9.80;81.28
43161;BME280;40968;52.342;5.528;2022-11-11T05:00:25;102780.41;;;9.81;81.11
43161;BME280;40968;52.342;5.528;2022-11-11T05:02:52;102782.16;;;9.82;81.13
43161;BME280;40968;52.342;5.528;2022-11-11T05:05:36;102774.13;;;9.82;80.96
43161;BME280;40968;52.342;5.528;2022-11-11T05:08:18;102709.59;;;9.44;80.95
43161;BME280;40968;52.342;5.528;2022-11-11T05:11:03;102686.25;;;9.25;81.09
43161;BME280;40968;52.342;5.528;2022-11-11T05:13:30;102706.13;;;9.42;81.09
43161;BME280;40968;52.342;5.528;2022-11-11T05:16:16;102748.22;;;9.60;80.88
43161;BME280;40968;52.342;5.528;2022-11-11T05:19:01;102713.16;;;9.44;81.05
43161;BME280;40968;52.342;5.528;2022-11-11T05:21:45;102741.13;;;9.59;80.99
43161;BME280;40968;52.342;5.528;2022-11-11T05:24:13;102681.72;;;9.27;80.88
43161;BME280;40968;52.342;5.528;2022-11-11T05:26:58;102703.81;;;9.33;80.74
43161;BME280;40968;52.342;5.528;2022-11-11T05:29:24;102702.72;;;9.38;80.71
43161;BME280;40968;52.342;5.528;2022-11-11T05:31:51;102771.75;;;9.74;80.78
43161;BME280;40968;52.342;5.528;2022-11-11T05:34:17;102784.78;;;9.84;80.78
43161;BME280;40968;52.342;5.528;2022-11-11T05:36:44;102794.63;;;9.83;80.57
43161;BME280;40968;52.342;5.528;2022-11-11T05:39:10;102745.03;;;9.51;80.68
43161;BME280;40968;52.342;5.528;2022-11-11T05:41:38;102800.84;;;9.84;80.70
43161;BME280;40968;52.342;5.528;2022-11-11T05:44:05;102679.66;;;9.12;80.58
43161;BME280;40968;52.342;5.528;2022-11-11T05:46:31;102802.59;;;9.85;80.67
43161;BME280;40968;52.342;5.528;2022-11-11T05:48:58;102793.69;;;9.84;80.51
43161;BME280;40968;52.342;5.528;2022-11-11T05:51:40;102807.09;;;9.84;80.67
43161;BME280;40968;52.342;5.528;2022-11-11T05:54:07;102803.59;;;9.82;80.55
43161;BME280;40968;52.342;5.528;2022-11-11T05:56:33;102799.97;;;9.83;80.63
43161;BME280;40968;52.342;5.528;2022-11-11T05:59:01;102801.75;;;9.84;80.55
43161;BME280;40968;52.342;5.528;2022-11-11T06:01:28;102507.13;;;8.08;80.13
43161;BME280;40968;52.342;5.528;2022-11-11T06:03:55;102808.84;;;9.85;80.60
43161;BME280;40968;52.342;5.528;2022-11-11T06:06:22;102820.03;;;9.73;80.51
43161;BME280;40968;52.342;5.528;2022-11-11T06:08:48;102808.94;;;9.82;80.43
43161;BME280;40968;52.342;5.528;2022-11-11T06:11:15;102739.91;;;9.44;80.43
43161;BME280;40968;52.342;5.528;2022-11-11T06:13:41;102813.44;;;9.82;80.40
43161;BME280;40968;52.342;5.528;2022-11-11T06:16:09;102774.03;;;9.61;80.36
43161;BME280;40968;52.342;5.528;2022-11-11T06:18:36;102700.00;;;9.16;80.49
43161;BME280;40968;52.342;5.528;2022-11-11T06:21:03;102740.47;;;9.31;80.33
43161;BME280;40968;52.342;5.528;2022-11-11T06:23:30;102765.81;;;9.44;80.26
43161;BME280;40968;52.342;5.528;2022-11-11T06:25:57;102768.44;;;9.45;80.31
43161;BME280;40968;52.342;5.528;2022-11-11T06:28:37;102656.19;;;8.73;80.22
43161;BME280;40968;52.342;5.528;2022-11-11T06:31:04;102840.22;;;9.82;80.47
43161;BME280;40968;52.342;5.528;2022-11-11T06:33:33;102783.63;;;9.45;80.09
43161;BME280;40968;52.342;5.528;2022-11-11T06:36:00;102527.44;;;7.87;80.18
43161;BME280;40968;52.342;5.528;2022-11-11T06:38:27;102839.69;;;9.72;80.38
43161;BME280;40968;52.342;5.528;2022-11-11T06:40:53;102804.91;;;9.48;80.38
43161;BME280;40968;52.342;5.528;2022-11-11T06:43:20;102860.19;;;9.73;80.41
43161;BME280;40968;52.342;5.528;2022-11-11T06:45:49;102841.56;;;9.70;80.41
43161;BME280;40968;52.342;5.528;2022-11-11T06:48:16;102796.44;;;9.37;80.26
43161;BME280;40968;52.342;5.528;2022-11-11T06:50:44;102712.69;;;8.87;80.33
43161;BME280;40968;52.342;5.528;2022-11-11T06:53:12;102794.78;;;9.33;80.35
43161;BME280;40968;52.342;5.528;2022-11-11T06:55:39;102834.94;;;9.56;80.34
43161;BME280;40968;52.342;5.528;2022-11-11T06:58:06;102749.44;;;9.06;80.21
43161;BME280;40968;52.342;5.528;2022-11-11T07:00:33;102787.94;;;9.25;80.21
43161;BME280;40968;52.342;5.528;2022-11-11T07:03:00;102858.56;;;9.69;80.14
43161;BME280;40968;52.342;5.528;2022-11-11T07:05:26;102842.97;;;9.56;80.26
43161;BME280;40968;52.342;5.528;2022-11-11T07:07:55;102859.50;;;9.68;80.49
43161;BME280;40968;52.342;5.528;2022-11-11T07:10:22;102743.72;;;8.91;80.25
43161;BME280;40968;52.342;5.528;2022-11-11T07:12:48;102810.81;;;9.34;80.07
43161;BME280;40968;52.342;5.528;2022-11-11T07:15:15;102870.19;;;9.68;80.34
43161;BME280;40968;52.342;5.528;2022-11-11T07:17:42;102763.00;;;9.00;80.04
43161;BME280;40968;52.342;5.528;2022-11-11T07:20:09;102830.97;;;9.43;80.04
43161;BME280;40968;52.342;5.528;2022-11-11T07:22:36;102626.00;;;8.20;80.15
43161;BME280;40968;52.342;5.528;2022-11-11T07:25:05;102628.88;;;8.14;80.20
43161;BME280;40968;52.342;5.528;2022-11-11T07:27:35;102719.50;;;8.71;80.07
43161;BME280;40968;52.342;5.528;2022-11-11T07:30:02;102883.72;;;9.65;80.40
43161;BME280;40968;52.342;5.528;2022-11-11T07:32:30;102886.38;;;9.65;80.31
43161;BME280;40968;52.342;5.528;2022-11-11T07:34:56;102850.41;;;9.48;80.24
43161;BME280;40968;52.342;5.528;2022-11-11T07:37:23;102843.72;;;9.36;80.33
43161;BME280;40968;52.342;5.528;2022-11-11T07:39:49;102774.53;;;9.02;80.11
43161;BME280;40968;52.342;5.528;2022-11-11T07:42:17;102886.25;;;9.68;80.34
43161;BME280;40968;52.342;5.528;2022-11-11T07:44:44;102887.94;;;9.70;79.95
43161;BME280;40968;52.342;5.528;2022-11-11T07:47:11;102798.75;;;9.22;80.04
43161;BME280;40968;52.342;5.528;2022-11-11T07:49:37;102840.63;;;9.47;80.05
43161;BME280;40968;52.342;5.528;2022-11-11T07:52:04;102722.19;;;8.71;79.89
43161;BME280;40968;52.342;5.528;2022-11-11T07:54:31;102885.34;;;9.69;79.99
43161;BME280;40968;52.342;5.528;2022-11-11T07:56:58;102898.66;;;9.70;80.09
43161;BME280;40968;52.342;5.528;2022-11-11T07:59:25;102891.53;;;9.71;80.08
43161;BME280;40968;52.342;5.528;2022-11-11T08:01:52;102634.09;;;8.17;79.89
43161;BME280;40968;52.342;5.528;2022-11-11T08:04:19;102809.69;;;9.16;79.63
43161;BME280;40968;52.342;5.528;2022-11-11T08:06:45;102904.78;;;9.74;79.89
43161;BME280;40968;52.342;5.528;2022-11-11T08:09:12;102828.34;;;9.18;79.64
43161;BME280;40968;52.342;5.528;2022-11-11T08:11:38;102851.59;;;9.41;79.66
43161;BME280;40968;52.342;5.528;2022-11-11T08:14:22;102877.78;;;9.56;79.63
43161;BME280;40968;52.342;5.528;2022-11-11T08:16:51;102913.69;;;9.74;79.68
43161;BME280;40968;52.342;5.528;2022-11-11T08:19:18;102911.81;;;9.76;79.78
43161;BME280;40968;52.342;5.528;2022-11-11T08:21:44;102888.94;;;9.44;79.32
43161;BME280;40968;52.342;5.528;2022-11-11T08:24:11;102863.91;;;9.45;79.72
43161;BME280;40968;52.342;5.528;2022-11-11T08:26:37;102876.81;;;9.57;79.31
43161;BME280;40968;52.342;5.528;2022-11-11T08:29:04;102929.41;;;9.84;79.41
43161;BME280;40968;52.342;5.528;2022-11-11T08:31:30;102862.81;;;9.51;79.37
43161;BME280;40968;52.342;5.528;2022-11-11T08:34:00;102716.13;;;8.66;79.12
43161;BME280;40968;52.342;5.528;2022-11-11T08:36:27;102928.47;;;9.85;79.37
43161;BME280;40968;52.342;5.528;2022-11-11T08:38:53;102895.22;;;9.67;78.99
43161;BME280;40968;52.342;5.528;2022-11-11T08:41:20;102849.19;;;9.33;78.64
43161;BME280;40968;52.342;5.528;2022-11-11T08:43:50;102822.13;;;9.17;78.74
43161;BME280;40968;52.342;5.528;2022-11-11T08:46:17;102914.38;;;9.79;78.77
43161;BME280;40968;52.342;5.528;2022-11-11T08:48:44;102938.88;;;9.92;78.72
43161;BME280;40968;52.342;5.528;2022-11-11T08:51:12;102935.63;;;9.84;78.64
43161;BME280;40968;52.342;5.528;2022-11-11T08:53:38;102915.38;;;9.77;78.40
43161;BME280;40968;52.342;5.528;2022-11-11T08:56:05;102847.16;;;9.40;78.43
43161;BME280;40968;52.342;5.528;2022-11-11T08:58:33;102929.47;;;9.82;78.43
43161;BME280;40968;52.342;5.528;2022-11-11T09:01:00;102849.84;;;9.40;78.31
43161;BME280;40968;52.342;5.528;2022-11-11T09:03:28;102886.81;;;9.54;77.96
43161;BME280;40968;52.342;5.528;2022-11-11T09:05:55;102963.56;;;10.01;78.14
43161;BME280;40968;52.342;5.528;2022-11-11T09:08:23;102903.16;;;9.70;77.90
43161;BME280;40968;52.342;5.528;2022-11-11T09:10:50;102959.88;;;10.05;77.90
43161;BME280;40968;52.342;5.528;2022-11-11T09:13:16;102746.84;;;8.79;77.61
43161;BME280;40968;52.342;5.528;2022-11-11T09:15:43;102866.66;;;9.43;77.86
43161;BME280;40968;52.342;5.528;2022-11-11T09:18:09;102973.94;;;10.10;77.69
43161;BME280;40968;52.342;5.528;2022-11-11T09:20:36;102893.38;;;9.69;77.53
43161;BME280;40968;52.342;5.528;2022-11-11T09:23:02;102895.22;;;9.67;77.48
43161;BME280;40968;52.342;5.528;2022-11-11T09:25:30;102899.78;;;9.65;77.62
43161;BME280;40968;52.342;5.528;2022-11-11T09:27:58;102982.56;;;10.18;77.42
43161;BME280;40968;52.342;5.528;2022-11-11T09:30:26;102955.66;;;9.98;77.24
43161;BME280;40968;52.342;5.528;2022-11-11T09:32:53;102926.56;;;9.88;77.35
43161;BME280;40968;52.342;5.528;2022-11-11T09:35:20;102996.66;;;10.23;77.32
43161;BME280;40968;52.342;5.528;2022-11-11T09:37:53;102991.19;;;10.26;77.46
43161;BME280;40968;52.342;5.528;2022-11-11T09:40:22;102987.56;;;10.27;77.33
43161;BME280;40968;52.342;5.528;2022-11-11T09:42:59;102919.50;;;9.86;77.35
43161;BME280;40968;52.342;5.528;2022-11-11T09:45:36;102898.50;;;9.75;76.99
43161;BME280;40968;52.342;5.528;2022-11-11T09:48:24;102952.75;;;10.04;76.99
43161;BME280;40968;52.342;5.528;2022-11-11T09:50:55;102956.78;;;10.16;76.81
43161;BME280;40968;52.342;5.528;2022-11-11T09:53:28;103008.47;;;10.43;76.52
43161;BME280;40968;52.342;5.528;2022-11-11T09:56:01;102987.25;;;10.37;76.63
43161;BME280;40968;52.342;5.528;2022-11-11T09:58:35;103011.84;;;10.48;76.35
43161;BME280;40968;52.342;5.528;2022-11-11T10:01:07;102996.97;;;10.39;76.31
43161;BME280;40968;52.342;5.528;2022-11-11T10:03:39;102992.41;;;10.41;76.46
43161;BME280;40968;52.342;5.528;2022-11-11T10:06:08;102913.72;;;9.96;76.41
43161;BME280;40968;52.342;5.528;2022-11-11T10:08:43;103013.19;;;10.58;76.05
43161;BME280;40968;52.342;5.528;2022-11-11T10:11:17;102961.78;;;10.25;76.17
43161;BME280;40968;52.342;5.528;2022-11-11T10:13:47;103024.81;;;10.59;76.18
43161;BME280;40968;52.342;5.528;2022-11-11T10:16:19;102994.38;;;10.38;76.23
43161;BME280;40968;52.342;5.528;2022-11-11T10:19:01;102925.44;;;9.94;75.94
43161;BME280;40968;52.342;5.528;2022-11-11T10:21:35;103005.72;;;10.44;75.93
43161;BME280;40968;52.342;5.528;2022-11-11T10:24:06;103033.03;;;10.54;76.08
43161;BME280;40968;52.342;5.528;2022-11-11T10:26:38;102922.69;;;9.95;76.24
43161;BME280;40968;52.342;5.528;2022-11-11T10:29:13;102987.13;;;10.40;75.89
43161;BME280;40968;52.342;5.528;2022-11-11T10:31:41;102960.00;;;10.24;75.80
43161;BME280;40968;52.342;5.528;2022-11-11T10:34:09;103043.59;;;10.81;75.69
43161;BME280;40968;52.342;5.528;2022-11-11T10:36:42;103021.75;;;10.68;75.54
43161;BME280;40968;52.342;5.528;2022-11-11T10:39:14;103033.66;;;10.83;75.71
43161;BME280;40968;52.342;5.528;2022-11-11T10:41:43;102917.44;;;10.16;75.52
43161;BME280;40968;52.342;5.528;2022-11-11T10:44:20;102915.69;;;10.15;75.22
43161;BME280;40968;52.342;5.528;2022-11-11T10:46:57;103047.78;;;10.88;75.16
43161;BME280;40968;52.342;5.528;2022-11-11T10:49:26;103047.78;;;10.88;75.50
43161;BME280;40968;52.342;5.528;2022-11-11T10:52:02;102970.66;;;10.49;75.60
43161;BME280;40968;52.342;5.528;2022-11-11T10:54:33;102993.50;;;10.59;75.23
43161;BME280;40968;52.342;5.528;2022-11-11T10:57:04;102982.91;;;10.56;75.43
43161;BME280;40968;52.342;5.528;2022-11-11T10:59:42;103032.63;;;10.87;75.47
43161;BME280;40968;52.342;5.528;2022-11-11T11:02:18;103015.84;;;10.82;75.46
43161;BME280;40968;52.342;5.528;2022-11-11T11:04:47;102953.84;;;10.45;75.30
43161;BME280;40968;52.342;5.528;2022-11-11T11:07:21;102987.97;;;10.64;75.40
43161;BME280;40968;52.342;5.528;2022-11-11T11:09:52;102884.97;;;10.02;75.39
43161;BME280;40968;52.342;5.528;2022-11-11T11:12:24;102867.03;;;10.04;75.46
43161;BME280;40968;52.342;5.528;2022-11-11T11:14:59;102843.84;;;10.03;75.27
43161;BME280;40968;52.342;5.528;2022-11-11T11:17:30;102964.44;;;10.71;75.18
43161;BME280;40968;52.342;5.528;2022-11-11T11:20:11;102805.56;;;9.77;74.93
43161;BME280;40968;52.342;5.528;2022-11-11T11:22:47;103020.75;;;11.15;74.94
43161;BME280;40968;52.342;5.528;2022-11-11T11:25:15;102931.03;;;10.57;74.98
43161;BME280;40968;52.342;5.528;2022-11-11T11:27:43;103030.47;;;11.18;74.88
43161;BME280;40968;52.342;5.528;2022-11-11T11:30:13;102943.13;;;10.68;74.71
43161;BME280;40968;52.342;5.528;2022-11-11T11:32:40;102976.03;;;10.93;74.50
43161;BME280;40968;52.342;5.528;2022-11-11T11:35:09;103027.66;;;11.21;74.77
43161;BME280;40968;52.342;5.528;2022-11-11T11:37:54;102930.25;;;10.76;74.44
43161;BME280;40968;52.342;5.528;2022-11-11T11:40:21;102975.38;;;11.09;74.32
43161;BME280;40968;52.342;5.528;2022-11-11T11:42:47;103015.28;;;11.39;74.23
43161;BME280;40968;52.342;5.528;2022-11-11T11:45:20;103012.34;;;11.45;74.05
43161;BME280;40968;52.342;5.528;2022-11-11T11:47:54;103013.00;;;11.50;73.87
43161;BME280;40968;52.342;5.528;2022-11-11T11:50:39;102975.16;;;11.36;73.55
43161;BME280;40968;52.342;5.528;2022-11-11T11:53:19;102794.38;;;10.34;73.25
43161;BME280;40968;52.342;5.528;2022-11-11T11:55:53;102899.72;;;11.01;73.01
43161;BME280;40968;52.342;5.528;2022-11-11T11:58:29;102797.47;;;10.45;73.04
43161;BME280;40968;52.342;5.528;2022-11-11T12:01:04;102946.41;;;11.38;72.94
43161;BME280;40968;52.342;5.528;2022-11-11T12:03:55;102922.38;;;11.35;72.57
43161;BME280;40968;52.342;5.528;2022-11-11T12:06:31;102966.94;;;11.59;72.35
43161;BME280;40968;52.342;5.528;2022-11-11T12:09:07;103009.34;;;11.92;72.19
43161;BME280;40968;52.342;5.528;2022-11-11T12:11:41;102876.63;;;11.17;72.20
43161;BME280;40968;52.342;5.528;2022-11-11T12:14:47;102989.72;;;11.90;72.36
43161;BME280;40968;52.342;5.528;2022-11-11T12:17:27;102984.50;;;11.87;72.15
43161;BME280;40968;52.342;5.528;2022-11-11T12:20:03;102916.03;;;11.56;72.12
43161;BME280;40968;52.342;5.528;2022-11-11T12:22:48;102881.81;;;11.41;71.73
43161;BME280;40968;52.342;5.528;2022-11-11T12:25:21;102997.09;;;12.06;71.56
43161;BME280;40968;52.342;5.528;2022-11-11T12:27:57;102999.94;;;12.03;71.78
43161;BME280;40968;52.342;5.528;2022-11-11T12:30:27;102950.00;;;11.78;71.86
43161;BME280;40968;52.342;5.528;2022-11-11T12:33:10;102930.28;;;11.58;71.97
43161;BME280;40968;52.342;5.528;2022-11-11T12:35:49;102878.09;;;11.45;72.02
43161;BME280;40968;52.342;5.528;2022-11-11T12:38:45;102984.41;;;12.09;71.94
43161;BME280;40968;52.342;5.528;2022-11-11T12:41:21;102896.47;;;11.54;71.76
43161;BME280;40968;52.342;5.528;2022-11-11T12:43:55;102891.50;;;11.45;71.63
43161;BME280;40968;52.342;5.528;2022-11-11T12:46:34;102951.06;;;11.74;71.44
43161;BME280;40968;52.342;5.528;2022-11-11T12:49:16;102994.97;;;11.93;71.76
43161;BME280;40968;52.342;5.528;2022-11-11T12:51:54;103005.31;;;12.03;71.74
43161;BME280;40968;52.342;5.528;2022-11-11T12:54:28;102867.38;;;11.24;71.82
43161;BME280;40968;52.342;5.528;2022-11-11T12:57:00;102969.56;;;11.80;71.81
43161;BME280;40968;52.342;5.528;2022-11-11T12:59:41;102907.72;;;11.63;71.67
43161;BME280;40968;52.342;5.528;2022-11-11T13:02:25;102965.38;;;11.95;71.25
43161;BME280;40968;52.342;5.528;2022-11-11T13:05:08;102944.97;;;11.89;71.43
43161;BME280;40968;52.342;5.528;2022-11-11T13:07:56;102926.31;;;11.86;71.40
43161;BME280;40968;52.342;5.528;2022-11-11T13:10:32;102991.53;;;12.30;71.09
43161;BME280;40968;52.342;5.528;2022-11-11T13:13:14;102954.91;;;12.08;71.05
43161;BME280;40968;52.342;5.528;2022-11-11T13:15:47;102947.56;;;12.11;71.05
43161;BME280;40968;52.342;5.528;2022-11-11T13:18:17;102869.91;;;11.67;70.48
43161;BME280;40968;52.342;5.528;2022-11-11T13:20:51;102894.22;;;11.83;70.39